Fehn Calais — V2CI3 — position and weather

sailwx.info

Track history (hours):
 
Tides and Currents Weather Stations Pressure Air Temp Water Temp Dewpoint Dewpoint Depression Visibility Wind Speed Wind Dir Waves Ship Positions

Fehn Calais

Last reported at 2014-Oct-31 21:33 UTC. Time now 2014-Oct-31 21:40 UTC.
Position N 40°13' E 001°48'.

Length 82 m; draft 3 m.

Type: Ship. MMSI: 305009000.

Date/timePositionNaut miles runAvg speedWind from/ knotsBaromVisibWave heightAir tempDewpointWater temp
2014-Oct-31 21:33N 40°13' E 001°48'10 9.6
2014-Oct-31 20:33N 40°05' E 001°53'10 9.6
2014-Oct-31 19:33N 39°56' E 001°58'10 9.8
2014-Oct-31 18:33N 39°47' E 002°03'1010.0
2014-Oct-31 17:31N 39°37' E 002°08'9 9.7
2014-Oct-31 16:33N 39°29' E 002°13'9 9.3
2014-Oct-31 15:33N 39°21' E 002°20'10 9.6
2014-Oct-31 14:33N 39°14' E 002°29'10 9.6
2014-Oct-31 13:33N 39°07' E 002°37'10 9.7
2014-Oct-31 12:33N 38°60' E 002°45'10 9.7
2014-Oct-31 11:33N 38°52' E 002°53'9 9.4
2014-Oct-31 10:33N 38°45' E 003°01'9 9.1
2014-Oct-31 09:31N 38°38' E 003°08'  
2014-Oct-27 03:04N 36°30' W 000°26'6 8.4
2014-Oct-27 02:19N 36°29' W 000°34'7 8.3
2014-Oct-27 01:31N 36°28' W 000°42'9 8.4
2014-Oct-27 00:25N 36°27' W 000°53'10 8.6
2014-Oct-26 23:18N 36°26' W 001°05'7 8.7
2014-Oct-26 22:30N 36°25' W 001°14'198 9.4
2014-Oct-26 01:33N 36°02' W 005°18'5 0.9
2014-Oct-25 20:21N 36°06' W 005°22'6 7.3
2014-Oct-25 19:33N 36°04' W 005°15'6 5.8
2014-Oct-25 18:33N 35°60' W 005°20'10 9.9
2014-Oct-25 17:33N 35°57' W 005°32'146 8.6
2014-Oct-25 00:33N 36°24' W 008°29'9 9.2
2014-Oct-24 23:33N 36°26' W 008°40'9 9.1
2014-Oct-24 22:32N 36°29' W 008°51'9 9.1
2014-Oct-24 21:34N 36°31' W 009°02'58 8.3
2014-Oct-24 14:30N 37°21' W 009°41'12 9.1
2014-Oct-24 13:14N 37°32' W 009°45'6 8.9
2014-Oct-24 12:33N 37°38' W 009°46'9 9.1
2014-Oct-24 11:33N 37°47' W 009°49'9 9.0
2014-Oct-24 10:33N 37°55' W 009°51'9 9.0
2014-Oct-24 09:33N 38°04' W 009°54'9 9.1
2014-Oct-24 08:33N 38°13' W 009°57'9 9.3
2014-Oct-24 07:33N 38°22' W 009°59'10 9.3
2014-Oct-24 06:32N 38°31' W 010°02'10 9.2
2014-Oct-24 05:25N 38°41' W 010°05'  
Track history (hours):
 
Tides and Currents Weather Stations Pressure Air Temp Water Temp Dewpoint Dewpoint Depression Visibility Wind Speed Wind Dir Waves Ship Positions

Fehn Calais

Last reported at 2014-Oct-31 21:33 UTC. Time now 2014-Oct-31 21:40 UTC.
Position N 40°13' E 001°48'.

Length 82 m; draft 3 m.

Type: Ship. MMSI: 305009000.

Date/timePositionNaut miles runAvg speedWind from/ knotsBaromVisibWave heightAir tempDewpointWater temp
2014-Oct-31 21:33N 40°13' E 001°48'10 9.6
2014-Oct-31 20:33N 40°05' E 001°53'10 9.6
2014-Oct-31 19:33N 39°56' E 001°58'10 9.8
2014-Oct-31 18:33N 39°47' E 002°03'1010.0
2014-Oct-31 17:31N 39°37' E 002°08'9 9.7
2014-Oct-31 16:33N 39°29' E 002°13'9 9.3
2014-Oct-31 15:33N 39°21' E 002°20'10 9.6
2014-Oct-31 14:33N 39°14' E 002°29'10 9.6
2014-Oct-31 13:33N 39°07' E 002°37'10 9.7
2014-Oct-31 12:33N 38°60' E 002°45'10 9.7
2014-Oct-31 11:33N 38°52' E 002°53'9 9.4
2014-Oct-31 10:33N 38°45' E 003°01'9 9.1
2014-Oct-31 09:31N 38°38' E 003°08'  
2014-Oct-27 03:04N 36°30' W 000°26'6 8.4
2014-Oct-27 02:19N 36°29' W 000°34'7 8.3
2014-Oct-27 01:31N 36°28' W 000°42'9 8.4
2014-Oct-27 00:25N 36°27' W 000°53'10 8.6
2014-Oct-26 23:18N 36°26' W 001°05'7 8.7
2014-Oct-26 22:30N 36°25' W 001°14'198 9.4
2014-Oct-26 01:33N 36°02' W 005°18'5 0.9
2014-Oct-25 20:21N 36°06' W 005°22'6 7.3
2014-Oct-25 19:33N 36°04' W 005°15'6 5.8
2014-Oct-25 18:33N 35°60' W 005°20'10 9.9
2014-Oct-25 17:33N 35°57' W 005°32'146 8.6
2014-Oct-25 00:33N 36°24' W 008°29'9 9.2
2014-Oct-24 23:33N 36°26' W 008°40'9 9.1
2014-Oct-24 22:32N 36°29' W 008°51'9 9.1
2014-Oct-24 21:34N 36°31' W 009°02'58 8.3
2014-Oct-24 14:30N 37°21' W 009°41'12 9.1
2014-Oct-24 13:14N 37°32' W 009°45'6 8.9
2014-Oct-24 12:33N 37°38' W 009°46'9 9.1
2014-Oct-24 11:33N 37°47' W 009°49'9 9.0
2014-Oct-24 10:33N 37°55' W 009°51'9 9.0
2014-Oct-24 09:33N 38°04' W 009°54'9 9.1
2014-Oct-24 08:33N 38°13' W 009°57'9 9.3
2014-Oct-24 07:33N 38°22' W 009°59'10 9.3
2014-Oct-24 06:32N 38°31' W 010°02'10 9.2
2014-Oct-24 05:25N 38°41' W 010°05'  

Dump ship's entire track history